sensor_id;sensor_type;location;lat;lon;timestamp;pressure;altitude;pressure_sealevel;temperature;humidity
69239;BME280;56349;51.816;-0.026;2022-12-07T00:01:20;101752.86;;;20.57;34.42
69239;BME280;56349;51.816;-0.026;2022-12-07T00:03:45;101748.98;;;20.75;34.51
69239;BME280;56349;51.816;-0.026;2022-12-07T00:06:12;101748.64;;;20.37;34.64
69239;BME280;56349;51.816;-0.026;2022-12-07T00:08:35;101744.31;;;20.26;34.76
69239;BME280;56349;51.816;-0.026;2022-12-07T00:11:02;101743.22;;;20.40;34.91
69239;BME280;56349;51.816;-0.026;2022-12-07T00:13:26;101745.22;;;20.29;35.04
69239;BME280;56349;51.816;-0.026;2022-12-07T00:15:52;101746.89;;;20.62;35.13
69239;BME280;56349;51.816;-0.026;2022-12-07T00:18:17;101739.11;;;20.31;35.24
69239;BME280;56349;51.816;-0.026;2022-12-07T00:20:43;101742.32;;;20.43;35.36
69239;BME280;56349;51.816;-0.026;2022-12-07T00:23:09;101743.93;;;20.11;35.46
69239;BME280;56349;51.816;-0.026;2022-12-07T00:25:35;101737.82;;;20.05;35.54
69239;BME280;56349;51.816;-0.026;2022-12-07T00:28:00;101736.54;;;19.97;35.61
69239;BME280;56349;51.816;-0.026;2022-12-07T00:30:26;101739.65;;;20.13;35.69
69239;BME280;56349;51.816;-0.026;2022-12-07T00:32:52;101741.04;;;20.04;35.79
69239;BME280;56349;51.816;-0.026;2022-12-07T00:35:17;101742.89;;;20.23;35.86
69239;BME280;56349;51.816;-0.026;2022-12-07T00:37:43;101741.58;;;19.88;35.96
69239;BME280;56349;51.816;-0.026;2022-12-07T00:40:09;101742.98;;;19.81;36.03
69239;BME280;56349;51.816;-0.026;2022-12-07T00:42:34;101738.81;;;19.73;36.11
69239;BME280;56349;51.816;-0.026;2022-12-07T00:44:59;101738.96;;;19.68;36.17
69239;BME280;56349;51.816;-0.026;2022-12-07T00:47:25;101737.58;;;19.64;36.23
69239;BME280;56349;51.816;-0.026;2022-12-07T00:49:51;101736.47;;;19.86;36.27
69239;BME280;56349;51.816;-0.026;2022-12-07T00:52:16;101736.19;;;19.79;36.36
69239;BME280;56349;51.816;-0.026;2022-12-07T00:54:42;101734.71;;;19.45;36.43
69239;BME280;56349;51.816;-0.026;2022-12-07T00:57:08;101731.46;;;19.66;36.50
69239;BME280;56349;51.816;-0.026;2022-12-07T00:59:34;101732.15;;;19.34;36.55
69239;BME280;56349;51.816;-0.026;2022-12-07T01:01:59;101733.17;;;19.30;36.61
69239;BME280;56349;51.816;-0.026;2022-12-07T01:04:25;101732.43;;;19.25;36.65
69239;BME280;56349;51.816;-0.026;2022-12-07T01:06:51;101732.05;;;19.46;36.73
69239;BME280;56349;51.816;-0.026;2022-12-07T01:09:16;101728.24;;;19.14;36.79
69239;BME280;56349;51.816;-0.026;2022-12-07T01:11:42;101728.80;;;19.10;36.84
69239;BME280;56349;51.816;-0.026;2022-12-07T01:14:08;101728.16;;;19.32;36.89
69239;BME280;56349;51.816;-0.026;2022-12-07T01:16:33;101726.01;;;19.29;36.93
69239;BME280;56349;51.816;-0.026;2022-12-07T01:19:00;101725.42;;;19.47;36.97
69239;BME280;56349;51.816;-0.026;2022-12-07T01:21:26;101723.87;;;19.22;36.99
69239;BME280;56349;51.816;-0.026;2022-12-07T01:23:50;101724.53;;;19.40;37.03
69239;BME280;56349;51.816;-0.026;2022-12-07T01:26:17;101722.97;;;19.34;37.09
69239;BME280;56349;51.816;-0.026;2022-12-07T01:28:41;101725.21;;;18.82;37.13
69239;BME280;56349;51.816;-0.026;2022-12-07T01:31:09;101723.44;;;19.05;37.16
69239;BME280;56349;51.816;-0.026;2022-12-07T01:33:35;101721.95;;;18.75;37.19
69239;BME280;56349;51.816;-0.026;2022-12-07T01:36:02;101722.58;;;19.19;37.23
69239;BME280;56349;51.816;-0.026;2022-12-07T01:38:24;101725.59;;;18.93;37.26
69239;BME280;56349;51.816;-0.026;2022-12-07T01:40:54;101732.43;;;18.89;37.29
69239;BME280;56349;51.816;-0.026;2022-12-07T01:43:17;101736.70;;;19.08;37.34
69239;BME280;56349;51.816;-0.026;2022-12-07T01:45:41;101733.20;;;19.05;37.37
69239;BME280;56349;51.816;-0.026;2022-12-07T01:48:08;101733.63;;;19.02;37.39
69239;BME280;56349;51.816;-0.026;2022-12-07T01:50:33;101734.02;;;18.98;37.43
69239;BME280;56349;51.816;-0.026;2022-12-07T01:53:00;101729.59;;;18.96;37.43
69239;BME280;56349;51.816;-0.026;2022-12-07T01:55:24;101733.10;;;18.96;37.42
69239;BME280;56349;51.816;-0.026;2022-12-07T01:57:51;101734.15;;;18.71;37.45
69239;BME280;56349;51.816;-0.026;2022-12-07T02:00:15;101736.29;;;18.68;37.46
69239;BME280;56349;51.816;-0.026;2022-12-07T02:02:43;101736.35;;;18.87;37.49
69239;BME280;56349;51.816;-0.026;2022-12-07T02:05:06;101735.57;;;18.83;37.54
69239;BME280;56349;51.816;-0.026;2022-12-07T02:07:32;101736.32;;;18.57;37.57
69239;BME280;56349;51.816;-0.026;2022-12-07T02:10:01;101735.60;;;18.75;37.61
69239;BME280;56349;51.816;-0.026;2022-12-07T02:12:24;101735.23;;;18.70;37.67
69239;BME280;56349;51.816;-0.026;2022-12-07T02:14:49;101735.22;;;18.70;37.65
69239;BME280;56349;51.816;-0.026;2022-12-07T02:17:19;101739.56;;;18.68;37.66
69239;BME280;56349;51.816;-0.026;2022-12-07T02:22:17;101744.86;;;18.64;37.69
69239;BME280;56349;51.816;-0.026;2022-12-07T02:24:42;101742.14;;;18.40;37.69
69239;BME280;56349;51.816;-0.026;2022-12-07T02:27:06;101738.99;;;18.60;37.72
69239;BME280;56349;51.816;-0.026;2022-12-07T02:29:23;101736.49;;;18.57;37.73
69239;BME280;56349;51.816;-0.026;2022-12-07T02:31:56;101734.09;;;18.55;37.74
69239;BME280;56349;51.816;-0.026;2022-12-07T02:34:21;101735.81;;;18.29;37.76
69239;BME280;56349;51.816;-0.026;2022-12-07T02:36:45;101728.45;;;18.45;37.81
69239;BME280;56349;51.816;-0.026;2022-12-07T02:39:11;101725.87;;;18.21;37.83
69239;BME280;56349;51.816;-0.026;2022-12-07T02:41:35;101725.26;;;18.42;37.84
69239;BME280;56349;51.816;-0.026;2022-12-07T02:43:59;101717.39;;;18.41;37.84
69239;BME280;56349;51.816;-0.026;2022-12-07T02:46:23;101713.75;;;18.40;37.84
69239;BME280;56349;51.816;-0.026;2022-12-07T02:48:47;101705.46;;;18.37;37.86
69239;BME280;56349;51.816;-0.026;2022-12-07T02:51:13;101705.27;;;18.34;37.87
69239;BME280;56349;51.816;-0.026;2022-12-07T02:53:39;101706.68;;;18.32;37.88
69239;BME280;56349;51.816;-0.026;2022-12-07T02:56:07;101706.26;;;18.31;37.88
69239;BME280;56349;51.816;-0.026;2022-12-07T02:58:35;101707.61;;;18.28;37.91
69239;BME280;56349;51.816;-0.026;2022-12-07T03:01:03;101705.84;;;18.26;37.92
69239;BME280;56349;51.816;-0.026;2022-12-07T03:03:21;101702.41;;;18.26;37.91
69239;BME280;56349;51.816;-0.026;2022-12-07T03:05:58;101704.07;;;18.23;37.91
69239;BME280;56349;51.816;-0.026;2022-12-07T03:08:15;101702.69;;;18.19;37.96
69239;BME280;56349;51.816;-0.026;2022-12-07T03:10:45;101701.44;;;18.16;37.99
69239;BME280;56349;51.816;-0.026;2022-12-07T03:13:09;101699.59;;;18.13;38.00
69239;BME280;56349;51.816;-0.026;2022-12-07T03:15:33;101700.39;;;18.11;38.01
69239;BME280;56349;51.816;-0.026;2022-12-07T03:17:56;101698.46;;;18.10;38.00
69239;BME280;56349;51.816;-0.026;2022-12-07T03:20:21;101697.43;;;18.09;38.01
69239;BME280;56349;51.816;-0.026;2022-12-07T03:22:47;101697.26;;;18.07;38.02
69239;BME280;56349;51.816;-0.026;2022-12-07T03:25:14;101696.59;;;18.03;38.04
69239;BME280;56349;51.816;-0.026;2022-12-07T03:27:41;101699.87;;;18.01;38.04
69239;BME280;56349;51.816;-0.026;2022-12-07T03:30:05;101696.63;;;18.25;38.07
69239;BME280;56349;51.816;-0.026;2022-12-07T03:32:32;101694.78;;;18.23;38.08
69239;BME280;56349;51.816;-0.026;2022-12-07T03:34:57;101696.97;;;18.21;38.09
69239;BME280;56349;51.816;-0.026;2022-12-07T03:37:22;101699.97;;;17.94;38.07
69239;BME280;56349;51.816;-0.026;2022-12-07T03:39:49;101701.26;;;18.19;38.07
69239;BME280;56349;51.816;-0.026;2022-12-07T03:42:09;101698.51;;;17.91;38.07
69239;BME280;56349;51.816;-0.026;2022-12-07T03:44:35;101699.20;;;18.15;38.09
69239;BME280;56349;51.816;-0.026;2022-12-07T03:47:04;101697.41;;;18.36;38.09
69239;BME280;56349;51.816;-0.026;2022-12-07T03:49:30;101687.82;;;17.85;38.10
69239;BME280;56349;51.816;-0.026;2022-12-07T03:51:55;101689.68;;;17.83;38.11
69239;BME280;56349;51.816;-0.026;2022-12-07T03:54:21;101689.56;;;17.81;38.11
69239;BME280;56349;51.816;-0.026;2022-12-07T03:56:44;101683.89;;;17.79;38.13
69239;BME280;56349;51.816;-0.026;2022-12-07T03:59:09;101687.10;;;18.05;38.11
69239;BME280;56349;51.816;-0.026;2022-12-07T04:01:34;101687.48;;;17.76;38.13
69239;BME280;56349;51.816;-0.026;2022-12-07T04:04:00;101684.14;;;18.21;38.16
69239;BME280;56349;51.816;-0.026;2022-12-07T04:06:26;101689.24;;;17.97;38.17
69239;BME280;56349;51.816;-0.026;2022-12-07T04:08:52;101685.69;;;17.68;38.19
69239;BME280;56349;51.816;-0.026;2022-12-07T04:11:17;101683.67;;;17.68;38.17
69239;BME280;56349;51.816;-0.026;2022-12-07T04:13:43;101683.43;;;17.92;38.19
69239;BME280;56349;51.816;-0.026;2022-12-07T04:16:09;101683.97;;;17.89;38.19
69239;BME280;56349;51.816;-0.026;2022-12-07T04:18:35;101683.53;;;18.09;38.20
69239;BME280;56349;51.816;-0.026;2022-12-07T04:21:00;101688.20;;;17.60;38.20
69239;BME280;56349;51.816;-0.026;2022-12-07T04:23:26;101690.20;;;17.84;38.20
69239;BME280;56349;51.816;-0.026;2022-12-07T04:25:52;101688.59;;;17.81;38.21
69239;BME280;56349;51.816;-0.026;2022-12-07T04:28:18;101691.29;;;18.02;38.21
69239;BME280;56349;51.816;-0.026;2022-12-07T04:30:45;101691.99;;;18.00;38.27
69239;BME280;56349;51.816;-0.026;2022-12-07T04:33:10;101691.65;;;17.78;38.35
69239;BME280;56349;51.816;-0.026;2022-12-07T04:35:35;101682.91;;;18.02;38.41
69239;BME280;56349;51.816;-0.026;2022-12-07T04:38:01;101680.16;;;17.58;38.45
69239;BME280;56349;51.816;-0.026;2022-12-07T04:40:27;101678.75;;;17.66;38.46
69239;BME280;56349;51.816;-0.026;2022-12-07T04:42:53;101678.53;;;17.76;38.42
69239;BME280;56349;51.816;-0.026;2022-12-07T04:45:19;101672.86;;;17.89;38.33
69239;BME280;56349;51.816;-0.026;2022-12-07T04:47:44;101675.96;;;18.04;38.20
69239;BME280;56349;51.816;-0.026;2022-12-07T04:50:10;101672.85;;;18.21;37.99
69239;BME280;56349;51.816;-0.026;2022-12-07T04:52:36;101674.10;;;18.12;37.79
69239;BME280;56349;51.816;-0.026;2022-12-07T04:55:02;101671.13;;;17.96;37.57
69239;BME280;56349;51.816;-0.026;2022-12-07T04:57:28;101669.26;;;18.54;37.37
69239;BME280;56349;51.816;-0.026;2022-12-07T04:59:54;101670.73;;;18.60;37.20
69239;BME280;56349;51.816;-0.026;2022-12-07T05:02:20;101670.71;;;18.61;37.08
69239;BME280;56349;51.816;-0.026;2022-12-07T05:04:45;101677.60;;;18.40;36.97
69239;BME280;56349;51.816;-0.026;2022-12-07T05:07:11;101675.67;;;18.63;36.90
69239;BME280;56349;51.816;-0.026;2022-12-07T05:09:37;101675.85;;;18.13;36.89
69239;BME280;56349;51.816;-0.026;2022-12-07T05:12:03;101674.67;;;18.58;36.95
69239;BME280;56349;51.816;-0.026;2022-12-07T05:14:29;101674.44;;;18.55;37.02
69239;BME280;56349;51.816;-0.026;2022-12-07T05:16:55;101672.83;;;18.49;37.18
69239;BME280;56349;51.816;-0.026;2022-12-07T05:19:21;101672.17;;;18.44;37.33
69239;BME280;56349;51.816;-0.026;2022-12-07T05:21:47;101676.70;;;18.42;37.50
69239;BME280;56349;51.816;-0.026;2022-12-07T05:24:14;101675.10;;;18.38;37.68
69239;BME280;56349;51.816;-0.026;2022-12-07T05:26:38;101676.84;;;18.36;37.85
69239;BME280;56349;51.816;-0.026;2022-12-07T05:29:04;101674.24;;;18.34;38.05
69239;BME280;56349;51.816;-0.026;2022-12-07T05:31:29;101672.09;;;18.33;38.21
69239;BME280;56349;51.816;-0.026;2022-12-07T05:33:54;101666.20;;;18.34;38.38
69239;BME280;56349;51.816;-0.026;2022-12-07T05:36:20;101664.36;;;18.34;38.54
69239;BME280;56349;51.816;-0.026;2022-12-07T05:38:46;101666.70;;;18.35;38.69
69239;BME280;56349;51.816;-0.026;2022-12-07T05:41:15;101669.25;;;18.35;38.83
69239;BME280;56349;51.816;-0.026;2022-12-07T05:43:37;101660.81;;;18.38;38.94
69239;BME280;56349;51.816;-0.026;2022-12-07T05:46:03;101658.88;;;18.41;39.03
69239;BME280;56349;51.816;-0.026;2022-12-07T05:48:29;101660.84;;;18.46;39.09
69239;BME280;56349;51.816;-0.026;2022-12-07T05:50:55;101652.46;;;18.49;39.16
69239;BME280;56349;51.816;-0.026;2022-12-07T05:53:21;101651.37;;;18.53;39.25
69239;BME280;56349;51.816;-0.026;2022-12-07T05:55:46;101653.03;;;18.56;39.32
69239;BME280;56349;51.816;-0.026;2022-12-07T05:58:12;101648.68;;;18.38;39.38
69239;BME280;56349;51.816;-0.026;2022-12-07T06:00:38;101647.42;;;18.62;39.44
69239;BME280;56349;51.816;-0.026;2022-12-07T06:03:04;101645.96;;;18.66;39.48
69239;BME280;56349;51.816;-0.026;2022-12-07T06:05:30;101646.15;;;18.70;39.53
69239;BME280;56349;51.816;-0.026;2022-12-07T06:07:55;101641.59;;;18.54;39.54
69239;BME280;56349;51.816;-0.026;2022-12-07T06:10:21;101639.01;;;18.81;39.57
69239;BME280;56349;51.816;-0.026;2022-12-07T06:12:47;101639.14;;;18.84;39.61
69239;BME280;56349;51.816;-0.026;2022-12-07T06:15:12;101638.66;;;18.91;39.60
69239;BME280;56349;51.816;-0.026;2022-12-07T06:17:39;101641.62;;;18.73;39.63
69239;BME280;56349;51.816;-0.026;2022-12-07T06:20:05;101637.93;;;18.99;39.65
69239;BME280;56349;51.816;-0.026;2022-12-07T06:22:30;101638.61;;;19.05;39.64
69239;BME280;56349;51.816;-0.026;2022-12-07T06:24:55;101637.83;;;19.09;39.66
69239;BME280;56349;51.816;-0.026;2022-12-07T06:27:21;101641.33;;;18.92;39.63
69239;BME280;56349;51.816;-0.026;2022-12-07T06:29:47;101646.94;;;18.96;39.59
69239;BME280;56349;51.816;-0.026;2022-12-07T06:32:13;101647.84;;;18.72;39.54
69239;BME280;56349;51.816;-0.026;2022-12-07T06:34:39;101642.87;;;19.02;39.49
69239;BME280;56349;51.816;-0.026;2022-12-07T06:37:05;101646.69;;;19.27;39.41
69239;BME280;56349;51.816;-0.026;2022-12-07T06:39:31;101639.57;;;19.30;39.32
69239;BME280;56349;51.816;-0.026;2022-12-07T06:41:57;101630.31;;;19.32;39.23
69239;BME280;56349;51.816;-0.026;2022-12-07T06:44:22;101627.09;;;19.11;39.14
69239;BME280;56349;51.816;-0.026;2022-12-07T06:46:47;101628.90;;;19.35;39.04
69239;BME280;56349;51.816;-0.026;2022-12-07T06:49:13;101627.73;;;19.16;38.91
69239;BME280;56349;51.816;-0.026;2022-12-07T06:51:39;101624.15;;;19.15;38.82
69239;BME280;56349;51.816;-0.026;2022-12-07T06:54:05;101630.16;;;18.86;38.75
69239;BME280;56349;51.816;-0.026;2022-12-07T06:56:31;101629.60;;;19.12;38.67
69239;BME280;56349;51.816;-0.026;2022-12-07T06:58:57;101630.56;;;19.32;38.61
69239;BME280;56349;51.816;-0.026;2022-12-07T07:01:22;101634.54;;;18.83;38.53
69239;BME280;56349;51.816;-0.026;2022-12-07T07:03:48;101637.44;;;19.31;38.46
69239;BME280;56349;51.816;-0.026;2022-12-07T07:06:14;101642.61;;;18.82;38.38
69239;BME280;56349;51.816;-0.026;2022-12-07T07:08:40;101644.27;;;19.07;38.32
69239;BME280;56349;51.816;-0.026;2022-12-07T07:11:07;101643.91;;;19.03;38.26
69239;BME280;56349;51.816;-0.026;2022-12-07T07:13:33;101644.63;;;19.20;38.23
69239;BME280;56349;51.816;-0.026;2022-12-07T07:15:59;101645.57;;;18.96;38.18
69239;BME280;56349;51.816;-0.026;2022-12-07T07:18:24;101644.22;;;19.14;38.15
69239;BME280;56349;51.816;-0.026;2022-12-07T07:20:50;101638.06;;;19.13;38.07
69239;BME280;56349;51.816;-0.026;2022-12-07T07:23:15;101645.84;;;18.60;38.05
69239;BME280;56349;51.816;-0.026;2022-12-07T07:25:40;101646.43;;;19.06;38.00
69239;BME280;56349;51.816;-0.026;2022-12-07T07:28:06;101648.67;;;18.81;37.97
69239;BME280;56349;51.816;-0.026;2022-12-07T07:30:32;101650.86;;;19.00;37.93
69239;BME280;56349;51.816;-0.026;2022-12-07T07:32:58;101652.08;;;18.75;37.89
69239;BME280;56349;51.816;-0.026;2022-12-07T07:35:24;101652.05;;;18.73;37.82
69239;BME280;56349;51.816;-0.026;2022-12-07T07:37:49;101650.44;;;18.68;37.81
69239;BME280;56349;51.816;-0.026;2022-12-07T07:40:15;101650.96;;;18.65;37.78
69239;BME280;56349;51.816;-0.026;2022-12-07T07:42:41;101655.99;;;18.86;37.74
69239;BME280;56349;51.816;-0.026;2022-12-07T07:45:08;101658.44;;;18.83;37.71
69239;BME280;56349;51.816;-0.026;2022-12-07T07:47:33;101660.96;;;18.82;37.66
69239;BME280;56349;51.816;-0.026;2022-12-07T07:49:59;101656.91;;;18.78;37.62
69239;BME280;56349;51.816;-0.026;2022-12-07T07:52:25;101660.63;;;18.74;37.62
69239;BME280;56349;51.816;-0.026;2022-12-07T07:54:50;101664.76;;;18.69;37.51
69239;BME280;56349;51.816;-0.026;2022-12-07T07:57:16;101662.11;;;18.63;37.44
69239;BME280;56349;51.816;-0.026;2022-12-07T07:59:41;101659.92;;;18.63;37.46
69239;BME280;56349;51.816;-0.026;2022-12-07T08:02:10;101661.07;;;18.61;37.61
69239;BME280;56349;51.816;-0.026;2022-12-07T08:04:33;101662.63;;;18.63;37.84
69239;BME280;56349;51.816;-0.026;2022-12-07T08:06:58;101658.69;;;18.68;38.10
69239;BME280;56349;51.816;-0.026;2022-12-07T08:09:24;101662.47;;;18.55;38.27
69239;BME280;56349;51.816;-0.026;2022-12-07T08:11:50;101661.03;;;18.90;38.27
69239;BME280;56349;51.816;-0.026;2022-12-07T08:14:16;101660.41;;;18.85;38.25
69239;BME280;56349;51.816;-0.026;2022-12-07T08:16:42;101665.76;;;18.81;38.20
69239;BME280;56349;51.816;-0.026;2022-12-07T08:19:07;101664.32;;;19.04;38.10
69239;BME280;56349;51.816;-0.026;2022-12-07T08:21:33;101664.49;;;19.31;38.01
69239;BME280;56349;51.816;-0.026;2022-12-07T08:23:59;101665.40;;;19.57;37.87
69239;BME280;56349;51.816;-0.026;2022-12-07T08:26:25;101660.81;;;19.40;37.68
69239;BME280;56349;51.816;-0.026;2022-12-07T08:28:52;101665.40;;;19.71;37.49
69239;BME280;56349;51.816;-0.026;2022-12-07T08:31:18;101669.63;;;20.00;37.30
69239;BME280;56349;51.816;-0.026;2022-12-07T08:33:44;101666.85;;;20.27;37.04
69239;BME280;56349;51.816;-0.026;2022-12-07T08:36:10;101671.16;;;20.29;36.85
69239;BME280;56349;51.816;-0.026;2022-12-07T08:38:34;101668.95;;;20.83;36.62
69239;BME280;56349;51.816;-0.026;2022-12-07T08:40:59;101668.19;;;20.60;36.40
69239;BME280;56349;51.816;-0.026;2022-12-07T08:43:25;101665.29;;;21.06;36.15
69239;BME280;56349;51.816;-0.026;2022-12-07T08:45:56;101661.14;;;21.31;35.91
69239;BME280;56349;51.816;-0.026;2022-12-07T08:48:17;101654.12;;;21.30;35.68
69239;BME280;56349;51.816;-0.026;2022-12-07T08:50:42;101651.46;;;21.29;35.45
69239;BME280;56349;51.816;-0.026;2022-12-07T08:53:08;101652.50;;;21.72;35.23
69239;BME280;56349;51.816;-0.026;2022-12-07T08:55:51;101649.78;;;21.70;35.00
69239;BME280;56349;51.816;-0.026;2022-12-07T08:58:00;101646.73;;;21.63;34.75
69239;BME280;56349;51.816;-0.026;2022-12-07T09:00:25;101643.80;;;21.80;34.45
69239;BME280;56349;51.816;-0.026;2022-12-07T09:02:51;101639.30;;;21.95;34.15
69239;BME280;56349;51.816;-0.026;2022-12-07T09:05:16;101638.76;;;22.05;33.83
69239;BME280;56349;51.816;-0.026;2022-12-07T09:07:43;101636.48;;;22.13;33.51
69239;BME280;56349;51.816;-0.026;2022-12-07T09:10:09;101636.50;;;22.18;33.39
69239;BME280;56349;51.816;-0.026;2022-12-07T09:12:34;101638.65;;;22.29;33.34
69239;BME280;56349;51.816;-0.026;2022-12-07T09:14:59;101641.20;;;22.38;33.31
69239;BME280;56349;51.816;-0.026;2022-12-07T09:17:25;101640.49;;;22.23;33.27
69239;BME280;56349;51.816;-0.026;2022-12-07T09:19:51;101638.16;;;22.55;33.24
69239;BME280;56349;51.816;-0.026;2022-12-07T09:22:18;101632.63;;;22.64;33.26
69239;BME280;56349;51.816;-0.026;2022-12-07T09:24:43;101633.62;;;22.51;33.27
69239;BME280;56349;51.816;-0.026;2022-12-07T09:27:08;101633.42;;;22.57;33.20
69239;BME280;56349;51.816;-0.026;2022-12-07T09:29:34;101629.75;;;22.81;33.03
69239;BME280;56349;51.816;-0.026;2022-12-07T09:32:00;101627.84;;;22.64;32.99
69239;BME280;56349;51.816;-0.026;2022-12-07T09:34:26;101628.27;;;22.93;33.01
69239;BME280;56349;51.816;-0.026;2022-12-07T09:36:51;101627.68;;;22.81;32.99
69239;BME280;56349;51.816;-0.026;2022-12-07T09:39:17;101623.77;;;22.90;32.95
69239;BME280;56349;51.816;-0.026;2022-12-07T09:41:44;101623.41;;;22.98;32.91
69239;BME280;56349;51.816;-0.026;2022-12-07T09:44:12;101623.59;;;22.81;32.85
69239;BME280;56349;51.816;-0.026;2022-12-07T09:46:37;101626.86;;;22.90;32.78
69239;BME280;56349;51.816;-0.026;2022-12-07T09:49:00;101629.91;;;22.96;32.72
69239;BME280;56349;51.816;-0.026;2022-12-07T09:51:25;101630.54;;;23.29;32.59
69239;BME280;56349;51.816;-0.026;2022-12-07T09:53:52;101627.35;;;23.35;32.41
69239;BME280;56349;51.816;-0.026;2022-12-07T09:56:18;101624.97;;;22.89;32.11
69239;BME280;56349;51.816;-0.026;2022-12-07T09:58:43;101626.28;;;23.14;31.71
69239;BME280;56349;51.816;-0.026;2022-12-07T10:01:12;101622.38;;;23.13;31.64
69239;BME280;56349;51.816;-0.026;2022-12-07T10:03:36;101621.08;;;22.89;31.54
69239;BME280;56349;51.816;-0.026;2022-12-07T10:06:00;101623.98;;;23.13;31.53
69239;BME280;56349;51.816;-0.026;2022-12-07T10:08:26;101624.75;;;23.10;31.03
69239;BME280;56349;51.816;-0.026;2022-12-07T10:10:53;101628.29;;;23.04;30.16
69239;BME280;56349;51.816;-0.026;2022-12-07T10:13:20;101631.78;;;23.02;30.69
69239;BME280;56349;51.816;-0.026;2022-12-07T10:15:47;101627.23;;;23.03;30.72
69239;BME280;56349;51.816;-0.026;2022-12-07T10:18:18;101620.66;;;23.07;30.91
69239;BME280;56349;51.816;-0.026;2022-12-07T10:20:34;101620.53;;;23.10;31.05
69239;BME280;56349;51.816;-0.026;2022-12-07T10:23:02;101619.00;;;23.18;31.08
69239;BME280;56349;51.816;-0.026;2022-12-07T10:25:28;101623.10;;;23.24;31.01
69239;BME280;56349;51.816;-0.026;2022-12-07T10:27:58;101621.36;;;23.02;30.91
69239;BME280;56349;51.816;-0.026;2022-12-07T10:30:18;101616.57;;;23.23;30.89
69239;BME280;56349;51.816;-0.026;2022-12-07T10:32:43;101615.24;;;23.25;30.87
69239;BME280;56349;51.816;-0.026;2022-12-07T10:35:19;101612.95;;;23.29;30.81
69239;BME280;56349;51.816;-0.026;2022-12-07T10:37:40;101612.32;;;23.32;30.75
69239;BME280;56349;51.816;-0.026;2022-12-07T10:40:00;101611.92;;;23.34;30.68
69239;BME280;56349;51.816;-0.026;2022-12-07T10:42:28;101607.77;;;23.36;30.61
69239;BME280;56349;51.816;-0.026;2022-12-07T10:47:29;101601.75;;;23.16;30.50
69239;BME280;56349;51.816;-0.026;2022-12-07T10:52:12;101585.54;;;23.41;30.37
69239;BME280;56349;51.816;-0.026;2022-12-07T10:54:39;101580.49;;;23.19;30.32
69239;BME280;56349;51.816;-0.026;2022-12-07T10:57:08;101575.26;;;23.19;30.27
69239;BME280;56349;51.816;-0.026;2022-12-07T11:01:54;101565.21;;;23.16;30.19
69239;BME280;56349;51.816;-0.026;2022-12-07T11:04:21;101558.98;;;23.37;30.15
69239;BME280;56349;51.816;-0.026;2022-12-07T11:06:46;101557.28;;;23.13;30.12
69239;BME280;56349;51.816;-0.026;2022-12-07T11:11:34;101552.89;;;23.32;30.07
69239;BME280;56349;51.816;-0.026;2022-12-07T11:14:03;101550.29;;;23.33;30.01
69239;BME280;56349;51.816;-0.026;2022-12-07T11:16:31;101546.00;;;23.58;29.97
69239;BME280;56349;51.816;-0.026;2022-12-07T11:18:59;101541.82;;;23.30;29.94
69239;BME280;56349;51.816;-0.026;2022-12-07T11:21:20;101540.80;;;23.29;29.90
69239;BME280;56349;51.816;-0.026;2022-12-07T11:23:46;101540.09;;;23.26;29.88
69239;BME280;56349;51.816;-0.026;2022-12-07T11:26:13;101537.66;;;23.25;29.84
69239;BME280;56349;51.816;-0.026;2022-12-07T11:28:41;101540.16;;;23.23;29.80
69239;BME280;56349;51.816;-0.026;2022-12-07T11:31:04;101540.16;;;23.21;29.78
69239;BME280;56349;51.816;-0.026;2022-12-07T11:33:29;101541.39;;;23.17;29.77
69239;BME280;56349;51.816;-0.026;2022-12-07T11:35:57;101542.30;;;23.13;29.73
69239;BME280;56349;51.816;-0.026;2022-12-07T11:38:17;101544.94;;;23.11;29.72
69239;BME280;56349;51.816;-0.026;2022-12-07T11:40:44;101537.47;;;23.07;29.72
69239;BME280;56349;51.816;-0.026;2022-12-07T11:43:13;101533.67;;;23.04;29.71
69239;BME280;56349;51.816;-0.026;2022-12-07T11:45:33;101537.07;;;23.27;29.70
69239;BME280;56349;51.816;-0.026;2022-12-07T11:48:00;101537.77;;;22.98;29.70
69239;BME280;56349;51.816;-0.026;2022-12-07T11:50:27;101527.91;;;22.95;29.70
69239;BME280;56349;51.816;-0.026;2022-12-07T11:52:51;101523.83;;;22.93;29.65
69239;BME280;56349;51.816;-0.026;2022-12-07T11:55:21;101519.51;;;22.89;29.66
69239;BME280;56349;51.816;-0.026;2022-12-07T11:57:44;101512.71;;;22.87;29.65
69239;BME280;56349;51.816;-0.026;2022-12-07T12:02:36;101505.73;;;22.80;29.64
69239;BME280;56349;51.816;-0.026;2022-12-07T12:05:02;101498.67;;;23.05;29.63
69239;BME280;56349;51.816;-0.026;2022-12-07T12:07:23;101492.77;;;23.02;29.62
69239;BME280;56349;51.816;-0.026;2022-12-07T12:09:51;101491.71;;;22.74;29.61
69239;BME280;56349;51.816;-0.026;2022-12-07T12:14:48;101486.14;;;22.96;29.60
69239;BME280;56349;51.816;-0.026;2022-12-07T12:17:13;101481.32;;;22.67;29.60
69239;BME280;56349;51.816;-0.026;2022-12-07T12:19:34;101482.13;;;22.66;29.59
69239;BME280;56349;51.816;-0.026;2022-12-07T12:22:06;101481.22;;;22.64;29.58
69239;BME280;56349;51.816;-0.026;2022-12-07T12:24:25;101478.02;;;22.62;29.58
69239;BME280;56349;51.816;-0.026;2022-12-07T12:26:50;101477.62;;;22.59;29.56
69239;BME280;56349;51.816;-0.026;2022-12-07T12:29:20;101475.61;;;22.59;29.56
69239;BME280;56349;51.816;-0.026;2022-12-07T12:31:39;101477.26;;;22.57;29.54
69239;BME280;56349;51.816;-0.026;2022-12-07T12:34:04;101477.47;;;22.57;29.53
69239;BME280;56349;51.816;-0.026;2022-12-07T12:43:46;101460.69;;;22.98;29.46
69239;BME280;56349;51.816;-0.026;2022-12-07T12:48:36;101455.79;;;22.46;29.08
69239;BME280;56349;51.816;-0.026;2022-12-07T12:53:26;101450.08;;;22.42;29.41
69239;BME280;56349;51.816;-0.026;2022-12-07T12:56:04;101451.42;;;22.39;29.64
69239;BME280;56349;51.816;-0.026;2022-12-07T13:00:42;101451.29;;;22.86;29.91
69239;BME280;56349;51.816;-0.026;2022-12-07T13:03:21;101448.03;;;22.37;29.99